CYRQ

Trois-Rivieres Airport

Code ICAO CYRQ
Code IATA YRQ
Nom Trois-Rivieres Airport
Emplacement Trois-Rivieres, Quebec, CA
Élévation 199 pieds / 60.7 mètres
Latitude 46.35166667
Longitude -72.68055556
METAR CYRQ 080600Z AUTO 05007KT 9SM OVC091 07/00 A2992 RMK SLP135
Informations extras Afficher cartes et CFS
Afficher NOTAMS
Piste Longueur Largeur Surface Élévation
05 9006 ft 150 ft ASP 185 ft
23 9006 ft 150 ft ASP 197 ft

Routes obligatoires

Trois-Rivieres Airport

Direction Destination Niveau Remarque Type Route
DEP TO E H&L RNAV PESAC
DEP TO W H&L RNAV UFX
DEP TO CYUL L RNAV PESAC MISOP SILVI OMBRE OMBRE ARR